createdAt,value
2022-11-27T00:01:48.461Z,92.80
2022-11-27T00:04:18.505Z,92.56
2022-11-27T00:06:48.714Z,93.24
2022-11-27T00:09:19.273Z,93.22
2022-11-27T00:11:49.781Z,93.52
2022-11-27T00:14:20.919Z,93.98
2022-11-27T00:16:51.627Z,94.29
2022-11-27T00:19:21.843Z,94.65
2022-11-27T00:21:52.162Z,94.79
2022-11-27T00:24:22.091Z,94.94
2022-11-27T00:26:52.052Z,95.29
2022-11-27T00:29:22.020Z,95.23
2022-11-27T00:31:51.897Z,95.42
2022-11-27T00:34:22.088Z,95.62
2022-11-27T00:36:52.041Z,95.76
2022-11-27T00:39:22.335Z,96.11
2022-11-27T00:41:52.254Z,96.57
2022-11-27T00:44:22.329Z,96.82
2022-11-27T00:46:52.376Z,97.64
2022-11-27T00:49:22.327Z,97.83
2022-11-27T00:51:52.235Z,97.79
2022-11-27T00:54:22.974Z,97.62
2022-11-27T00:56:53.122Z,97.67
2022-11-27T00:59:22.979Z,97.88
2022-11-27T01:01:53.239Z,97.89
2022-11-27T01:04:23.702Z,98.00
2022-11-27T01:06:53.634Z,98.36
2022-11-27T01:09:23.612Z,98.57
2022-11-27T01:11:53.477Z,98.66
2022-11-27T01:14:23.957Z,99.33
2022-11-27T01:16:54.969Z,99.49
2022-11-27T01:19:25.706Z,99.64
2022-11-27T01:21:55.644Z,99.41
2022-11-27T01:24:26.486Z,99.77
2022-11-27T01:26:56.698Z,99.87
2022-11-27T01:29:26.869Z,99.85
2022-11-27T01:31:57.135Z,99.99
2022-11-27T01:34:27.050Z,99.98
2022-11-27T01:36:57.018Z,99.99
2022-11-27T01:39:27.864Z,99.86
2022-11-27T01:41:57.985Z,99.81
2022-11-27T01:44:28.476Z,99.99
2022-11-27T01:47:05.044Z,99.99
2022-11-27T01:49:35.103Z,99.99
2022-11-27T01:52:37.411Z,99.99
2022-11-27T01:55:21.425Z,99.99
2022-11-27T01:58:02.482Z,99.99
2022-11-27T02:00:32.686Z,99.99
2022-11-27T02:03:02.643Z,99.99
2022-11-27T02:05:33.247Z,99.99
2022-11-27T02:08:11.605Z,99.99
2022-11-27T02:11:01.020Z,99.99
2022-11-27T02:13:57.272Z,99.99
2022-11-27T02:16:38.435Z,98.34
2022-11-27T02:19:30.008Z,95.70
2022-11-27T02:22:21.182Z,98.01
2022-11-27T02:25:08.817Z,94.00
2022-11-27T02:27:56.961Z,94.61
2022-11-27T02:30:27.581Z,94.98
2022-11-27T02:33:01.283Z,92.61
2022-11-27T02:35:41.872Z,93.89
2022-11-27T02:38:17.214Z,92.25
2022-11-27T02:41:07.271Z,92.90
2022-11-27T02:43:43.651Z,91.83
2022-11-27T02:46:15.853Z,89.93
2022-11-27T02:48:56.811Z,91.83
2022-11-27T02:51:50.046Z,93.81
2022-11-27T02:54:26.745Z,93.99
2022-11-27T02:56:58.917Z,94.51
2022-11-27T02:59:32.682Z,96.20
2022-11-27T03:02:14.250Z,97.45
2022-11-27T03:04:51.046Z,97.40
2022-11-27T03:07:33.041Z,97.84
2022-11-27T03:10:10.306Z,98.42
2022-11-27T03:12:41.239Z,98.50
2022-11-27T03:15:12.196Z,98.73
2022-11-27T03:17:59.640Z,99.58
2022-11-27T03:20:34.436Z,99.73
2022-11-27T03:23:05.045Z,99.88
2022-11-27T03:25:35.792Z,99.99
2022-11-27T03:28:09.982Z,99.86
2022-11-27T03:30:42.778Z,99.99
2022-11-27T03:33:14.669Z,99.99
2022-11-27T03:35:45.248Z,99.99
2022-11-27T03:38:15.296Z,99.99
2022-11-27T03:41:06.388Z,99.99
2022-11-27T03:43:46.382Z,99.99
2022-11-27T03:46:32.703Z,99.99
2022-11-27T03:49:16.292Z,99.99
2022-11-27T03:52:00.274Z,99.99
2022-11-27T03:54:54.830Z,99.99
2022-11-27T03:57:37.361Z,99.99
2022-11-27T04:00:10.988Z,99.99
2022-11-27T04:02:52.601Z,99.99
2022-11-27T04:05:23.564Z,99.99
2022-11-27T04:07:54.190Z,99.99
2022-11-27T04:10:24.319Z,99.99
2022-11-27T04:12:54.214Z,99.99
2022-11-27T04:15:24.340Z,99.99
2022-11-27T04:17:54.224Z,99.99
2022-11-27T04:20:24.262Z,99.99
2022-11-27T04:22:54.166Z,99.99
2022-11-27T04:25:24.534Z,99.99
2022-11-27T04:27:54.582Z,99.99
2022-11-27T04:30:24.929Z,99.99
2022-11-27T04:32:55.548Z,99.99
2022-11-27T04:35:25.469Z,99.99
2022-11-27T04:37:56.004Z,99.99
2022-11-27T04:40:26.383Z,99.99
2022-11-27T04:42:56.602Z,99.99
2022-11-27T04:45:26.963Z,99.99
2022-11-27T04:47:57.003Z,99.99
2022-11-27T04:50:26.874Z,99.99
2022-11-27T04:52:57.300Z,99.99
2022-11-27T04:55:27.177Z,99.99
2022-11-27T04:57:57.069Z,99.99
2022-11-27T05:00:27.072Z,99.99
2022-11-27T05:02:57.091Z,99.99
2022-11-27T05:05:27.042Z,99.99
2022-11-27T05:07:57.725Z,99.99
2022-11-27T05:10:28.070Z,99.99
2022-11-27T05:12:58.406Z,99.99
2022-11-27T05:15:29.260Z,99.99
2022-11-27T05:17:59.577Z,99.99
2022-11-27T05:20:29.767Z,99.99
2022-11-27T05:23:00.309Z,99.99
2022-11-27T05:25:30.238Z,99.99
2022-11-27T05:28:00.542Z,99.99
2022-11-27T05:30:30.515Z,99.99
2022-11-27T05:33:00.839Z,99.99
2022-11-27T05:35:30.732Z,99.99
2022-11-27T05:38:00.708Z,99.99
2022-11-27T05:40:30.654Z,99.99
2022-11-27T05:43:00.468Z,99.99
2022-11-27T05:45:30.342Z,99.99
2022-11-27T05:48:00.202Z,99.99
2022-11-27T05:50:30.034Z,99.99
2022-11-27T05:53:01.718Z,99.99
2022-11-27T05:55:31.882Z,99.99
2022-11-27T05:58:02.032Z,99.99
2022-11-27T06:00:32.524Z,99.99
2022-11-27T06:03:02.495Z,99.99
2022-11-27T06:05:32.374Z,99.99
2022-11-27T06:08:02.272Z,99.99
2022-11-27T06:10:32.493Z,99.99
2022-11-27T06:13:02.663Z,99.99
2022-11-27T06:15:32.558Z,99.99
2022-11-27T06:18:03.361Z,99.99
2022-11-27T06:20:33.542Z,99.99
2022-11-27T06:23:03.705Z,99.99
2022-11-27T06:25:34.895Z,99.99
2022-11-27T06:28:04.959Z,99.99
2022-11-27T06:30:34.893Z,99.99
2022-11-27T06:33:04.755Z,99.99
2022-11-27T06:35:35.081Z,99.99
2022-11-27T06:38:04.978Z,99.99
2022-11-27T06:40:35.290Z,99.99
2022-11-27T06:43:05.185Z,99.99
2022-11-27T06:45:35.075Z,99.99
2022-11-27T06:48:05.052Z,99.99
2022-11-27T06:50:35.179Z,99.99
2022-11-27T06:53:05.391Z,99.99
2022-11-27T06:55:35.243Z,99.99
2022-11-27T06:58:05.149Z,99.99
2022-11-27T07:00:35.051Z,99.99
2022-11-27T07:03:05.131Z,99.99
2022-11-27T07:05:35.378Z,99.99
2022-11-27T07:08:06.348Z,99.99
2022-11-27T07:10:37.847Z,99.99
2022-11-27T07:13:08.091Z,99.99
2022-11-27T07:15:38.063Z,99.99
2022-11-27T07:18:08.319Z,99.99
2022-11-27T07:20:38.883Z,99.99
2022-11-27T07:23:08.933Z,99.99
2022-11-27T07:25:40.637Z,99.99
2022-11-27T07:28:14.734Z,99.99
2022-11-27T07:30:55.130Z,99.99
2022-11-27T07:33:25.829Z,99.99
2022-11-27T07:36:23.447Z,99.99
2022-11-27T07:38:54.012Z,99.99
2022-11-27T07:41:25.315Z,99.99
2022-11-27T07:43:57.033Z,99.99
2022-11-27T07:46:27.250Z,99.99
2022-11-27T07:48:57.123Z,99.99
2022-11-27T07:51:27.024Z,99.99
2022-11-27T07:53:57.358Z,99.99
2022-11-27T07:56:28.586Z,99.99
2022-11-27T07:59:00.742Z,99.99
2022-11-27T08:01:30.921Z,99.99
2022-11-27T08:04:00.829Z,99.99
2022-11-27T08:06:31.031Z,99.99
2022-11-27T08:09:01.092Z,99.99
2022-11-27T08:11:36.431Z,99.99
2022-11-27T08:14:08.539Z,99.99
2022-11-27T08:16:39.109Z,99.99
2022-11-27T08:19:09.425Z,99.99
2022-11-27T08:21:39.548Z,99.99
2022-11-27T08:24:09.748Z,99.99
2022-11-27T08:26:39.766Z,99.99
2022-11-27T08:29:12.475Z,99.99
2022-11-27T08:31:43.244Z,99.99
2022-11-27T08:34:13.333Z,99.99
2022-11-27T08:36:43.284Z,99.99
2022-11-27T08:39:13.282Z,99.99
2022-11-27T08:41:43.143Z,99.99
2022-11-27T08:44:13.329Z,99.99
2022-11-27T08:46:44.512Z,99.99
2022-11-27T08:49:14.859Z,99.99
2022-11-27T08:51:45.861Z,99.99
2022-11-27T08:54:15.941Z,99.99
2022-11-27T08:56:45.893Z,99.99
2022-11-27T08:59:16.071Z,99.99
2022-11-27T09:01:46.356Z,99.99
2022-11-27T09:04:16.814Z,99.99
2022-11-27T09:06:47.074Z,99.99
2022-11-27T09:09:17.355Z,99.99
2022-11-27T09:11:47.766Z,99.99
2022-11-27T09:14:18.119Z,99.99
2022-11-27T09:16:48.155Z,99.99
2022-11-27T09:19:18.317Z,99.99
2022-11-27T09:21:48.247Z,99.99
2022-11-27T09:24:18.193Z,99.99
2022-11-27T09:26:48.131Z,99.99
2022-11-27T09:29:18.064Z,98.75
2022-11-27T09:31:47.977Z,98.31
2022-11-27T09:34:18.013Z,97.07
2022-11-27T09:36:48.343Z,96.25
2022-11-27T09:39:20.669Z,95.03
2022-11-27T09:42:00.109Z,94.31
2022-11-27T09:44:53.817Z,93.44
2022-11-27T09:47:31.580Z,92.82
2022-11-27T09:50:22.613Z,91.93
2022-11-27T09:53:02.554Z,90.98
2022-11-27T09:55:46.096Z,90.98
2022-11-27T09:58:25.455Z,89.16
2022-11-27T10:00:56.077Z,88.57
2022-11-27T10:03:30.000Z,88.45
2022-11-27T10:06:22.252Z,87.63
2022-11-27T10:09:18.345Z,85.53
2022-11-27T10:12:11.689Z,85.66
2022-11-27T10:15:09.205Z,86.50
2022-11-27T10:17:50.123Z,85.75
2022-11-27T10:20:30.474Z,87.24
2022-11-27T10:23:39.072Z,86.55
2022-11-27T10:26:25.707Z,86.59
2022-11-27T10:29:33.461Z,87.14
2022-11-27T10:32:46.835Z,86.33
2022-11-27T10:35:13.732Z,84.94
2022-11-27T10:37:47.916Z,86.29
2022-11-27T10:40:21.756Z,83.73
2022-11-27T10:43:18.459Z,84.88
2022-11-27T10:46:24.741Z,85.00
2022-11-27T10:48:55.883Z,83.54
2022-11-27T10:51:40.629Z,84.20
2022-11-27T10:54:22.436Z,82.61
2022-11-27T10:57:14.238Z,83.70
2022-11-27T11:00:16.125Z,82.77
2022-11-27T11:02:47.533Z,82.14
2022-11-27T11:05:37.778Z,82.34
2022-11-27T11:08:22.390Z,81.90
2022-11-27T11:11:11.866Z,82.23
2022-11-27T11:13:42.053Z,80.79
2022-11-27T11:16:24.987Z,79.46
2022-11-27T11:18:58.850Z,80.59
2022-11-27T11:21:36.067Z,81.07
2022-11-27T11:24:05.900Z,80.50
2022-11-27T11:26:37.795Z,78.15
2022-11-27T11:29:34.332Z,79.31
2022-11-27T11:32:29.297Z,79.60
2022-11-27T11:35:26.227Z,80.04
2022-11-27T11:37:57.599Z,78.74
2022-11-27T11:40:32.495Z,79.69
2022-11-27T11:43:07.722Z,81.08
2022-11-27T11:45:47.902Z,80.58
2022-11-27T11:48:29.033Z,80.46
2022-11-27T11:50:59.326Z,79.80
2022-11-27T11:53:38.336Z,81.84
2022-11-27T11:56:22.225Z,80.85
2022-11-27T11:59:04.381Z,81.56
2022-11-27T12:01:35.648Z,80.40
2022-11-27T12:04:15.089Z,78.64
2022-11-27T12:06:57.715Z,77.43
2022-11-27T12:09:59.260Z,76.70
2022-11-27T12:12:57.421Z,76.93
2022-11-27T12:15:55.797Z,75.82
2022-11-27T12:18:37.842Z,73.19
2022-11-27T12:21:23.149Z,75.70
2022-11-27T12:23:59.022Z,73.88
2022-11-27T12:26:41.491Z,73.42
2022-11-27T12:29:40.457Z,75.10
2022-11-27T12:32:38.549Z,74.74
2022-11-27T12:35:33.520Z,74.14
2022-11-27T12:38:03.987Z,73.53
2022-11-27T12:41:00.343Z,72.38
2022-11-27T12:43:34.727Z,71.77
2022-11-27T12:46:39.672Z,73.38
2022-11-27T12:49:23.872Z,72.15
2022-11-27T12:52:05.292Z,71.37
2022-11-27T12:54:49.109Z,71.61
2022-11-27T12:57:26.439Z,69.02
2022-11-27T13:00:01.148Z,69.47
2022-11-27T13:02:56.133Z,69.91
2022-11-27T13:05:30.259Z,68.97
2022-11-27T13:08:17.584Z,69.35
2022-11-27T13:11:03.042Z,69.92
2022-11-27T13:13:42.241Z,68.57
2022-11-27T13:16:20.478Z,69.53
2022-11-27T13:19:13.941Z,73.32
2022-11-27T13:21:47.132Z,71.56
2022-11-27T13:24:17.677Z,71.36
2022-11-27T13:27:09.224Z,71.15
2022-11-27T13:29:48.226Z,70.79
2022-11-27T13:32:39.418Z,69.30
2022-11-27T13:35:39.026Z,66.87
2022-11-27T13:38:28.309Z,66.40
2022-11-27T13:41:00.626Z,65.88
2022-11-27T13:43:35.852Z,68.51
2022-11-27T13:46:13.115Z,68.86
2022-11-27T13:48:50.282Z,70.00
2022-11-27T13:51:35.615Z,71.57
2022-11-27T13:54:15.897Z,70.84
2022-11-27T13:56:46.842Z,70.46
2022-11-27T13:59:19.335Z,71.13
2022-11-27T14:02:15.401Z,72.47
2022-11-27T14:04:56.396Z,72.04
2022-11-27T14:07:57.623Z,72.06
2022-11-27T14:10:35.199Z,72.00
2022-11-27T14:13:09.870Z,72.38
2022-11-27T14:15:41.928Z,72.80
2022-11-27T14:18:12.298Z,73.17
2022-11-27T14:20:59.415Z,73.25
2022-11-27T14:23:33.347Z,72.55
2022-11-27T14:26:23.355Z,72.97
2022-11-27T14:28:57.500Z,71.83
2022-11-27T14:31:38.707Z,71.85
2022-11-27T14:34:27.662Z,72.09
2022-11-27T14:36:58.574Z,70.24
2022-11-27T14:39:39.485Z,71.75
2022-11-27T14:42:28.539Z,70.83
2022-11-27T14:45:14.982Z,68.75
2022-11-27T14:47:51.604Z,69.36
2022-11-27T14:50:23.470Z,67.66
2022-11-27T14:52:57.636Z,67.47
2022-11-27T14:55:34.403Z,66.06
2022-11-27T14:58:05.645Z,67.54
2022-11-27T15:00:35.568Z,62.17
2022-11-27T15:03:12.485Z,65.02
2022-11-27T15:05:52.686Z,61.48
2022-11-27T15:08:23.391Z,63.77
2022-11-27T15:10:58.128Z,65.98
2022-11-27T15:13:37.265Z,70.06
2022-11-27T15:16:28.158Z,70.42
2022-11-27T15:19:04.658Z,65.94
2022-11-27T15:21:39.901Z,61.48
2022-11-27T15:24:33.792Z,63.52
2022-11-27T15:27:34.070Z,65.39
2022-11-27T15:30:14.032Z,68.75
2022-11-27T15:32:56.795Z,64.88
2022-11-27T15:35:35.115Z,67.60
2022-11-27T15:38:13.152Z,67.33
2022-11-27T15:40:43.677Z,64.08
2022-11-27T15:43:17.745Z,60.72
2022-11-27T15:45:48.046Z,62.03
2022-11-27T15:48:20.713Z,61.90
2022-11-27T15:50:52.099Z,64.70
2022-11-27T15:53:22.549Z,68.11
2022-11-27T15:55:52.457Z,62.86
2022-11-27T15:58:22.695Z,66.37
2022-11-27T16:00:53.568Z,63.90
2022-11-27T16:03:23.948Z,60.97
2022-11-27T16:05:54.282Z,64.64
2022-11-27T16:08:24.623Z,63.10
2022-11-27T16:10:55.122Z,61.67
2022-11-27T16:13:26.614Z,60.46
2022-11-27T16:15:56.890Z,61.34
2022-11-27T16:18:27.566Z,61.76
2022-11-27T16:20:57.544Z,60.27
2022-11-27T16:23:27.454Z,59.35
2022-11-27T16:25:57.335Z,60.33
2022-11-27T16:28:32.244Z,60.97
2022-11-27T16:31:05.161Z,60.49
2022-11-27T16:33:35.471Z,61.02
2022-11-27T16:36:11.041Z,58.63
2022-11-27T16:38:42.177Z,58.34
2022-11-27T16:41:15.920Z,60.41
2022-11-27T16:43:48.817Z,59.39
2022-11-27T16:46:22.177Z,60.00
2022-11-27T16:48:52.626Z,64.49
2022-11-27T16:51:26.027Z,61.58
2022-11-27T16:53:58.471Z,63.86
2022-11-27T16:56:31.486Z,64.20
2022-11-27T16:59:03.305Z,64.89
2022-11-27T17:01:37.146Z,66.63
2022-11-27T17:04:10.306Z,65.34
2022-11-27T17:06:41.014Z,61.65
2022-11-27T17:09:11.294Z,62.61
2022-11-27T17:11:45.684Z,63.41
2022-11-27T17:14:17.337Z,67.04
2022-11-27T17:16:48.597Z,66.99
2022-11-27T17:19:19.932Z,63.21
2022-11-27T17:21:50.406Z,63.68
2022-11-27T17:24:21.030Z,66.66
2022-11-27T17:26:55.101Z,68.17
2022-11-27T17:29:33.827Z,67.77
2022-11-27T17:32:08.407Z,66.29
2022-11-27T17:34:38.818Z,67.94
2022-11-27T17:37:08.971Z,66.62
2022-11-27T17:39:41.238Z,66.13
2022-11-27T17:42:15.284Z,66.41
2022-11-27T17:44:48.600Z,67.81
2022-11-27T17:47:19.063Z,69.53
2022-11-27T17:49:49.056Z,69.02
2022-11-27T17:52:19.011Z,70.08
2022-11-27T17:54:50.192Z,68.25
2022-11-27T17:57:20.745Z,68.70
2022-11-27T17:59:51.904Z,69.68
2022-11-27T18:02:22.071Z,70.77
2022-11-27T18:04:52.079Z,70.86
2022-11-27T18:07:22.060Z,71.12
2022-11-27T18:09:55.410Z,68.06
2022-11-27T18:12:26.474Z,66.13
2022-11-27T18:15:01.228Z,65.51
2022-11-27T18:17:31.910Z,64.79
2022-11-27T18:20:02.030Z,63.44
2022-11-27T18:22:32.398Z,64.33
2022-11-27T18:25:02.550Z,62.89
2022-11-27T18:27:32.928Z,63.54
2022-11-27T18:30:03.173Z,62.66
2022-11-27T18:32:33.685Z,64.11
2022-11-27T18:35:03.978Z,64.19
2022-11-27T18:37:35.759Z,65.59
2022-11-27T18:40:08.543Z,64.72
2022-11-27T18:42:38.940Z,65.40
2022-11-27T18:45:25.347Z,65.57
2022-11-27T18:48:01.283Z,65.82
2022-11-27T18:50:31.439Z,64.98
2022-11-27T18:53:01.857Z,64.86
2022-11-27T18:55:35.990Z,64.65
2022-11-27T18:58:07.450Z,64.76
2022-11-27T19:00:38.273Z,66.00
2022-11-27T19:03:08.789Z,66.44
2022-11-27T19:05:39.018Z,67.20
2022-11-27T19:08:10.165Z,67.24
2022-11-27T19:10:40.404Z,67.19
2022-11-27T19:13:10.954Z,67.05
2022-11-27T19:15:42.533Z,68.31
2022-11-27T19:18:13.128Z,69.31
2022-11-27T19:20:43.027Z,71.47
2022-11-27T19:23:13.311Z,72.05
2022-11-27T19:25:45.103Z,72.53
2022-11-27T19:28:15.146Z,71.53
2022-11-27T19:30:46.428Z,72.86
2022-11-27T19:33:16.585Z,74.49
2022-11-27T19:35:46.926Z,74.95
2022-11-27T19:38:18.710Z,75.93
2022-11-27T19:40:49.468Z,76.93
2022-11-27T19:43:21.035Z,77.49
2022-11-27T19:45:51.725Z,78.20
2022-11-27T19:48:23.620Z,79.04
2022-11-27T19:50:54.067Z,78.95
2022-11-27T19:53:24.142Z,79.24
2022-11-27T19:55:57.446Z,80.26
2022-11-27T19:58:28.221Z,80.90
2022-11-27T20:01:10.673Z,81.21
2022-11-27T20:03:41.883Z,84.04
2022-11-27T20:06:15.386Z,85.51
2022-11-27T20:08:47.149Z,86.21
2022-11-27T20:11:22.357Z,87.75
2022-11-27T20:13:53.153Z,88.09
2022-11-27T20:16:23.633Z,89.18
2022-11-27T20:18:54.885Z,90.32
2022-11-27T20:21:28.201Z,90.30
2022-11-27T20:23:59.737Z,91.67
2022-11-27T20:26:31.726Z,92.64
2022-11-27T20:29:02.638Z,93.20
2022-11-27T20:31:35.732Z,92.22
2022-11-27T20:34:08.355Z,92.48
2022-11-27T20:36:42.198Z,93.43
2022-11-27T20:39:17.678Z,94.34
2022-11-27T20:41:52.306Z,94.12
2022-11-27T20:44:24.637Z,94.33
2022-11-27T20:46:55.326Z,94.04
2022-11-27T20:49:26.447Z,94.13
2022-11-27T20:51:57.485Z,93.83
2022-11-27T20:54:28.356Z,93.76
2022-11-27T20:56:58.427Z,93.64
2022-11-27T20:59:28.848Z,92.51
2022-11-27T21:01:59.087Z,92.99
2022-11-27T21:04:29.329Z,94.17
2022-11-27T21:06:59.835Z,95.36
2022-11-27T21:09:30.746Z,95.53
2022-11-27T21:12:00.944Z,95.41
2022-11-27T21:14:31.823Z,96.16
2022-11-27T21:17:05.217Z,96.94
2022-11-27T21:19:37.103Z,97.05
2022-11-27T21:22:08.452Z,97.29
2022-11-27T21:24:38.883Z,96.53
2022-11-27T21:27:11.113Z,97.25
2022-11-27T21:29:42.156Z,97.56
2022-11-27T21:32:13.214Z,97.10
2022-11-27T21:34:43.944Z,96.46
2022-11-27T21:37:14.947Z,97.06
2022-11-27T21:39:45.909Z,96.09
2022-11-27T21:42:17.631Z,96.28
2022-11-27T21:44:48.413Z,97.14
2022-11-27T21:47:18.812Z,97.53
2022-11-27T21:49:51.749Z,97.09
2022-11-27T21:52:22.133Z,96.28
2022-11-27T21:54:54.821Z,97.41
2022-11-27T21:57:25.391Z,98.13
2022-11-27T21:59:55.648Z,98.17
2022-11-27T22:02:25.674Z,98.26
2022-11-27T22:04:55.697Z,98.46
2022-11-27T22:07:25.692Z,98.39
2022-11-27T22:09:55.903Z,97.89
2022-11-27T22:12:25.811Z,98.59
2022-11-27T22:14:56.273Z,99.03
2022-11-27T22:17:26.615Z,99.26
2022-11-27T22:19:56.656Z,99.38
2022-11-27T22:22:26.608Z,99.71
2022-11-27T22:24:57.047Z,99.94
2022-11-27T22:27:27.494Z,99.94
2022-11-27T22:29:57.964Z,99.99
2022-11-27T22:32:28.417Z,99.99
2022-11-27T22:34:58.635Z,99.99
2022-11-27T22:37:29.252Z,99.99
2022-11-27T22:40:00.600Z,99.99
2022-11-27T22:42:31.032Z,99.99
2022-11-27T22:45:01.396Z,99.99
2022-11-27T22:47:31.977Z,99.99
2022-11-27T22:50:02.862Z,99.99
2022-11-27T22:52:33.149Z,99.99
2022-11-27T22:55:03.264Z,99.99
2022-11-27T22:57:36.016Z,99.99
2022-11-27T23:00:09.351Z,99.99
2022-11-27T23:02:40.236Z,99.99
2022-11-27T23:05:10.468Z,99.99
2022-11-27T23:07:41.230Z,99.99
2022-11-27T23:10:12.425Z,99.99
2022-11-27T23:12:42.469Z,99.99
2022-11-27T23:15:12.816Z,99.99
2022-11-27T23:17:43.156Z,99.99
2022-11-27T23:20:14.104Z,99.99
2022-11-27T23:22:44.152Z,99.99
2022-11-27T23:25:14.229Z,99.99
2022-11-27T23:27:46.050Z,99.99
2022-11-27T23:30:17.106Z,99.99
2022-11-27T23:32:47.113Z,99.99
2022-11-27T23:35:17.074Z,99.99
2022-11-27T23:37:47.116Z,99.99
2022-11-27T23:40:17.647Z,99.99
2022-11-27T23:42:47.927Z,99.99
2022-11-27T23:45:17.971Z,99.99
2022-11-27T23:47:48.869Z,99.99
2022-11-27T23:50:19.305Z,99.99
2022-11-27T23:52:49.660Z,99.99
2022-11-27T23:55:19.960Z,99.99
2022-11-27T23:57:50.343Z,99.99
